Time;durP1;ratioP1;P1;durP2;ratioP2;P2;SDS_P1;SDS_P2;PMS_P1;PMS_P2;Temp;Humidity;BMP_temperature;BMP_pressure;BME280_temperature;BME280_humidity;BME280_pressure;Samples;Min_cycle;Max_cycle;Signal;HPM_P1;HPM_P2
2022/11/09 04:01:43;;;;;;;0.60;0.60;;;16.30;52.40;;;;;;5368990;23;45943;-65
2022/11/09 04:04:09;;;;;;;1.00;0.70;;;16.30;52.50;;;;;;4913819;28;46274;-63
2022/11/09 04:06:34;;;;;;;0.93;0.60;;;16.30;52.40;;;;;;4931935;28;45612;-62
2022/11/09 04:09:00;;;;;;;1.10;0.93;;;16.40;52.50;;;;;;4937640;28;45151;-59
2022/11/09 04:11:25;;;;;;;0.60;0.57;;;16.30;52.40;;;;;;4939283;28;45428;-62
2022/11/09 04:13:51;;;;;;;0.60;0.60;;;16.30;52.40;;;;;;4940718;28;46017;-61
2022/11/09 04:16:16;;;;;;;0.88;0.52;;;16.30;52.40;;;;;;4937754;28;45319;-62
2022/11/09 04:18:42;;;;;;;0.70;0.60;;;16.30;52.40;;;;;;4940668;28;45176;-58
2022/11/09 04:21:07;;;;;;;0.50;0.50;;;16.30;52.40;;;;;;4938368;28;45457;-62
2022/11/09 04:23:33;;;;;;;0.70;0.60;;;16.30;52.40;;;;;;4935194;28;45470;-60
2022/11/09 04:25:59;;;;;;;0.60;0.60;;;16.40;52.40;;;;;;4931878;28;45404;-63
2022/11/09 04:28:25;;;;;;;0.50;0.50;;;16.40;52.40;;;;;;4934112;28;45484;-66
2022/11/09 04:30:50;;;;;;;0.60;0.60;;;16.30;52.30;;;;;;4933554;28;45605;-60
2022/11/09 04:33:16;;;;;;;0.90;0.73;;;16.30;52.40;;;;;;4940814;28;46194;-59
2022/11/09 04:35:41;;;;;;;0.65;0.65;;;16.30;52.40;;;;;;4942749;28;46081;-64
2022/11/09 04:38:09;;;;;;;0.55;0.55;;;16.40;52.40;;;;;;4934462;28;45162;-63
2022/11/09 04:40:35;;;;;;;0.60;0.60;;;16.30;52.40;;;;;;4917731;28;44996;-62
2022/11/09 04:43:01;;;;;;;0.57;0.50;;;16.30;52.40;;;;;;4936386;28;46136;-63
2022/11/09 04:45:27;;;;;;;0.77;0.65;;;16.40;52.40;;;;;;4933444;28;45204;-61
2022/11/09 04:47:57;;;;;;;0.88;0.80;;;16.30;52.40;;;;;;4936486;28;45266;-62
2022/11/09 04:50:23;;;;;;;0.50;0.50;;;16.30;52.40;;;;;;4938367;28;45282;-65
2022/11/09 04:52:48;;;;;;;0.55;0.52;;;16.30;52.40;;;;;;4927252;28;46460;-61
2022/11/09 04:55:14;;;;;;;0.70;0.60;;;16.30;52.40;;;;;;4933477;28;45276;-61
2022/11/09 04:57:40;;;;;;;0.63;0.50;;;16.30;52.40;;;;;;4923221;28;45345;-65
2022/11/09 05:00:06;;;;;;;0.63;0.63;;;16.30;52.40;;;;;;4937262;28;45176;-62
2022/11/09 05:02:32;;;;;;;1.33;0.80;;;16.40;52.40;;;;;;4935142;28;45925;-62
2022/11/09 05:04:58;;;;;;;0.70;0.50;;;16.30;52.40;;;;;;4944592;28;45660;-63
2022/11/09 05:07:23;;;;;;;1.10;0.80;;;16.40;52.40;;;;;;4932773;28;44786;-62
2022/11/09 05:09:49;;;;;;;0.52;0.50;;;16.40;52.40;;;;;;4941863;28;45637;-63
2022/11/09 05:12:14;;;;;;;0.50;0.50;;;16.30;52.40;;;;;;4923876;28;45223;-63
2022/11/09 05:14:40;;;;;;;0.68;0.65;;;16.30;52.30;;;;;;4936099;28;45517;-62
2022/11/09 05:17:07;;;;;;;1.13;0.90;;;16.40;52.40;;;;;;4936008;28;45376;-63
2022/11/09 05:19:33;;;;;;;0.98;0.60;;;16.30;52.40;;;;;;4935849;28;45537;-62
2022/11/09 05:23:57;;;;;;;0.57;0.57;;;16.30;52.40;;;;;;4931615;28;45475;-63
2022/11/09 05:24:44;;;;;;;1.10;0.80;;;16.30;52.40;;;;;;4931716;28;45294;-63
2022/11/09 05:27:09;;;;;;;0.93;0.60;;;16.30;52.40;;;;;;4929459;28;45523;-62
2022/11/09 05:29:35;;;;;;;0.70;0.70;;;16.30;52.30;;;;;;4942432;28;45376;-63
2022/11/09 05:32:01;;;;;;;1.20;0.70;;;16.40;52.40;;;;;;4938598;28;45497;-64
2022/11/09 05:34:26;;;;;;;0.60;0.60;;;16.40;52.40;;;;;;4932353;28;45231;-60
2022/11/09 05:36:52;;;;;;;0.68;0.60;;;16.30;52.30;;;;;;4934801;28;44686;-63
2022/11/09 05:39:17;;;;;;;1.17;0.65;;;16.30;52.40;;;;;;4929952;28;45342;-61
2022/11/09 05:41:43;;;;;;;0.63;0.50;;;16.30;52.40;;;;;;4942698;28;46968;-60
2022/11/09 05:44:08;;;;;;;4.30;0.88;;;16.30;52.40;;;;;;4935000;28;44905;-62
2022/11/09 05:46:34;;;;;;;0.70;0.65;;;16.30;52.40;;;;;;4930934;28;45288;-59
2022/11/09 05:49:00;;;;;;;0.50;0.50;;;16.30;52.40;;;;;;4945203;28;45499;-64
2022/11/09 05:51:25;;;;;;;0.60;0.60;;;16.30;52.40;;;;;;4941154;28;46068;-62
2022/11/09 05:53:51;;;;;;;0.80;0.75;;;16.30;52.40;;;;;;4929689;28;45473;-60
2022/11/09 05:56:16;;;;;;;0.98;0.70;;;16.30;52.40;;;;;;4934090;28;45264;-62
2022/11/09 05:58:42;;;;;;;0.70;0.70;;;16.30;52.40;;;;;;4954691;28;44865;-62
2022/11/09 06:01:13;;;;;;;1.00;0.90;;;16.30;52.40;;;;;;4940025;28;45910;-62
2022/11/09 06:03:41;;;;;;;0.70;0.50;;;16.30;52.40;;;;;;4932424;28;45311;-61
2022/11/09 06:06:07;;;;;;;0.70;0.60;;;16.30;52.30;;;;;;4935519;28;45021;-62
2022/11/09 06:08:32;;;;;;;0.70;0.57;;;16.40;52.40;;;;;;4924212;28;45372;-63
2022/11/09 06:11:06;;;;;;;0.70;0.60;;;16.30;52.40;;;;;;4936858;28;45897;-62
2022/11/09 06:13:31;;;;;;;0.85;0.60;;;16.30;52.40;;;;;;4939454;28;44662;-62
2022/11/09 06:16:01;;;;;;;1.00;0.70;;;16.30;52.40;;;;;;4935827;28;44765;-60
2022/11/09 06:18:28;;;;;;;0.57;0.57;;;16.30;52.40;;;;;;4943532;28;45161;-60
2022/11/09 06:20:54;;;;;;;0.77;0.70;;;16.30;52.40;;;;;;4940205;28;46093;-61
2022/11/09 06:23:24;;;;;;;1.02;0.73;;;16.30;52.40;;;;;;4942412;28;45135;-62
2022/11/09 06:26:10;;;;;;;0.50;0.50;;;16.30;52.40;;;;;;4926018;28;45710;-62
2022/11/09 06:28:39;;;;;;;0.60;0.60;;;16.30;52.40;;;;;;4945765;28;45104;-62
2022/11/09 06:31:06;;;;;;;0.68;0.65;;;16.30;52.40;;;;;;4930242;28;46109;-61
2022/11/09 06:33:33;;;;;;;0.85;0.70;;;16.30;52.40;;;;;;4943110;28;44924;-62
2022/11/09 06:35:59;;;;;;;0.60;0.50;;;16.30;52.40;;;;;;4939857;28;45254;-63
2022/11/09 06:38:27;;;;;;;1.15;0.70;;;16.30;52.40;;;;;;4941097;28;45437;-60
2022/11/09 06:40:54;;;;;;;0.70;0.70;;;16.30;52.30;;;;;;4929107;28;45896;-62
2022/11/09 06:43:19;;;;;;;0.65;0.60;;;16.30;52.40;;;;;;4934991;28;45407;-63
2022/11/09 06:45:45;;;;;;;0.60;0.50;;;16.30;52.30;;;;;;4940329;28;45494;-63
2022/11/09 06:48:11;;;;;;;0.60;0.60;;;16.30;52.40;;;;;;4941790;28;46051;-63
2022/11/09 06:50:36;;;;;;;0.65;0.65;;;16.30;52.30;;;;;;4936615;23;47022;-62
2022/11/09 06:53:04;;;;;;;0.52;0.50;;;16.30;52.30;;;;;;4936854;28;45245;-62
2022/11/09 06:55:31;;;;;;;0.80;0.60;;;16.30;52.90;;;;;;4939802;28;45037;-64
2022/11/09 06:57:57;;;;;;;1.10;0.80;;;16.30;52.30;;;;;;4934908;28;45607;-65
2022/11/09 07:00:23;;;;;;;0.70;0.70;;;16.30;52.40;;;;;;4946958;28;46091;-64
2022/11/09 07:02:48;;;;;;;0.70;0.60;;;16.30;52.30;;;;;;4935464;28;45238;-63
2022/11/09 07:05:14;;;;;;;0.77;0.73;;;16.30;52.30;;;;;;4946833;28;45365;-64
2022/11/09 07:07:40;;;;;;;1.35;0.90;;;16.30;52.30;;;;;;4936884;28;45149;-62
2022/11/09 07:10:06;;;;;;;0.60;0.60;;;16.30;52.40;;;;;;4941398;28;46064;-63
2022/11/09 07:12:33;;;;;;;0.50;0.50;;;16.30;52.30;;;;;;4940037;28;45486;-61
2022/11/09 07:14:59;;;;;;;0.70;0.70;;;16.30;52.40;;;;;;4941458;28;44839;-62
2022/11/09 07:17:24;;;;;;;1.00;0.65;;;16.30;52.40;;;;;;4939513;28;45998;-63
2022/11/09 07:19:50;;;;;;;0.60;0.60;;;16.30;52.40;;;;;;4943428;28;46067;-60
2022/11/09 07:22:16;;;;;;;0.73;0.70;;;16.30;52.40;;;;;;4939916;28;45330;-59
2022/11/09 07:24:41;;;;;;;0.80;0.50;;;16.30;52.40;;;;;;4934930;28;45316;-62
2022/11/09 07:27:07;;;;;;;0.65;0.65;;;16.30;52.30;;;;;;4937756;28;45390;-62
2022/11/09 07:29:32;;;;;;;0.80;0.70;;;16.30;52.40;;;;;;4936128;28;47128;-60
2022/11/09 07:31:58;;;;;;;0.80;0.50;;;16.30;52.40;;;;;;4939968;28;45145;-59
2022/11/09 07:34:24;;;;;;;0.65;0.60;;;16.30;52.40;;;;;;4935593;28;45260;-64
2022/11/09 07:36:52;;;;;;;0.65;0.65;;;16.30;52.40;;;;;;4936835;28;45472;-61
2022/11/09 07:39:18;;;;;;;1.10;0.80;;;16.30;52.40;;;;;;4931073;28;46029;-63
2022/11/09 07:41:47;;;;;;;0.63;0.63;;;16.30;52.40;;;;;;4935365;28;45088;-62
2022/11/09 07:44:16;;;;;;;0.80;0.80;;;16.30;52.40;;;;;;4925547;28;45255;-61
2022/11/09 07:46:43;;;;;;;0.90;0.65;;;16.30;52.40;;;;;;4944756;28;45483;-61
2022/11/09 07:49:12;;;;;;;0.50;0.50;;;16.30;52.40;;;;;;4932236;28;46107;-67
2022/11/09 07:51:38;;;;;;;0.60;0.55;;;16.30;52.40;;;;;;4924473;28;45369;-63
2022/11/09 07:54:04;;;;;;;1.13;0.90;;;16.30;52.50;;;;;;4933173;28;45331;-64
2022/11/09 07:56:29;;;;;;;1.00;0.70;;;16.30;52.40;;;;;;4936823;28;44721;-64
2022/11/09 07:58:55;;;;;;;0.70;0.70;;;16.30;52.40;;;;;;4930714;28;46181;-64
2022/11/09 08:01:21;;;;;;;1.00;0.80;;;16.30;52.40;;;;;;4934777;28;45171;-63
2022/11/09 08:03:46;;;;;;;0.85;0.50;;;16.30;52.50;;;;;;4936501;28;45383;-64
2022/11/09 08:06:12;;;;;;;0.68;0.57;;;16.20;52.30;;;;;;4936929;28;45905;-62
2022/11/09 08:08:37;;;;;;;0.82;0.70;;;16.30;52.40;;;;;;4937013;28;47024;-62
2022/11/09 08:11:03;;;;;;;0.93;0.60;;;16.30;52.40;;;;;;4932079;28;45647;-65
2022/11/09 08:13:29;;;;;;;0.60;0.60;;;16.30;52.40;;;;;;4936148;28;45290;-61
2022/11/09 08:15:55;;;;;;;0.70;0.50;;;16.30;52.40;;;;;;4940119;28;45510;-63
2022/11/09 08:18:21;;;;;;;1.08;0.73;;;16.30;52.40;;;;;;4945272;28;46913;-60
2022/11/09 08:20:48;;;;;;;0.73;0.73;;;16.30;52.40;;;;;;4934402;28;45317;-65
2022/11/09 08:23:16;;;;;;;0.52;0.52;;;16.30;52.40;;;;;;4913150;28;45259;-63
2022/11/09 08:25:42;;;;;;;0.65;0.57;;;16.30;52.40;;;;;;4939046;28;45548;-63
2022/11/09 08:28:08;;;;;;;0.85;0.70;;;16.30;52.40;;;;;;4937233;28;45443;-63
2022/11/09 08:30:33;;;;;;;0.50;0.47;;;16.30;52.40;;;;;;4932240;28;45260;-62
2022/11/09 08:33:00;;;;;;;0.73;0.63;;;16.30;52.40;;;;;;4936603;28;45247;-63
2022/11/09 08:35:26;;;;;;;0.73;0.60;;;16.30;52.40;;;;;;4934870;28;45954;-62
2022/11/09 08:37:52;;;;;;;0.60;0.60;;;16.30;52.30;;;;;;4936263;28;46147;-59
2022/11/09 08:40:19;;;;;;;0.80;0.70;;;16.30;52.40;;;;;;4927780;28;45599;-65
2022/11/09 08:42:45;;;;;;;0.85;0.70;;;16.30;52.40;;;;;;4934242;28;45812;-62
2022/11/09 08:45:11;;;;;;;0.95;0.60;;;16.30;52.40;;;;;;4931171;28;45026;-63
2022/11/09 08:47:37;;;;;;;0.93;0.60;;;16.30;52.40;;;;;;4933853;28;46227;-61
2022/11/09 08:50:03;;;;;;;1.20;0.70;;;16.30;52.40;;;;;;4944323;28;45119;-60
2022/11/09 08:52:29;;;;;;;0.50;0.50;;;16.30;52.40;;;;;;4926537;28;45340;-60
2022/11/09 08:54:55;;;;;;;0.55;0.55;;;16.30;52.40;;;;;;4916842;28;45557;-63
2022/11/09 08:57:20;;;;;;;0.60;0.60;;;16.30;52.40;;;;;;4944275;28;46159;-62
2022/11/09 08:59:46;;;;;;;1.02;0.80;;;16.30;52.40;;;;;;4940532;28;45312;-63
2022/11/09 09:02:12;;;;;;;0.77;0.77;;;16.30;52.40;;;;;;4928592;28;45516;-65
2022/11/09 09:04:38;;;;;;;0.80;0.52;;;16.30;52.40;;;;;;4935060;28;45204;-62
2022/11/09 09:07:03;;;;;;;0.60;0.60;;;16.30;52.40;;;;;;4942917;28;46457;-61
2022/11/09 09:09:29;;;;;;;0.50;0.50;;;16.30;52.40;;;;;;4944959;28;45252;-65
2022/11/09 09:11:54;;;;;;;2.42;0.60;;;16.30;52.40;;;;;;4932996;28;45130;-63
2022/11/09 09:14:20;;;;;;;0.63;0.60;;;16.30;52.40;;;;;;4940446;28;45555;-62
2022/11/09 09:16:46;;;;;;;0.60;0.60;;;16.30;52.40;;;;;;4930281;28;45563;-64
2022/11/09 09:19:11;;;;;;;0.65;0.60;;;16.30;52.40;;;;;;4949906;28;45506;-63
2022/11/09 09:21:37;;;;;;;0.55;0.50;;;16.30;52.40;;;;;;4930717;28;44943;-66
2022/11/09 09:24:03;;;;;;;0.65;0.63;;;16.20;52.30;;;;;;4937428;28;44860;-65
2022/11/09 09:26:28;;;;;;;0.77;0.77;;;16.30;52.40;;;;;;4932044;28;46300;-62
2022/11/09 09:28:54;;;;;;;1.08;0.60;;;16.30;52.40;;;;;;4941508;28;45467;-65
2022/11/09 09:31:19;;;;;;;0.60;0.60;;;16.30;52.40;;;;;;4942764;28;45499;-62
2022/11/09 09:33:46;;;;;;;0.60;0.60;;;16.30;52.40;;;;;;4917665;28;45538;-61
2022/11/09 09:36:21;;;;;;;1.15;0.70;;;16.30;52.40;;;;;;4935669;28;46100;-62
2022/11/09 09:38:51;;;;;;;0.68;0.60;;;16.30;52.30;;;;;;4928773;28;45221;-62
2022/11/09 09:41:24;;;;;;;0.82;0.60;;;16.30;52.40;;;;;;4943009;28;45625;-64
2022/11/09 09:43:53;;;;;;;0.65;0.65;;;16.30;52.40;;;;;;4939794;28;45253;-59
2022/11/09 09:46:23;;;;;;;0.93;0.63;;;16.30;52.30;;;;;;4909884;28;46253;-66
2022/11/09 09:48:55;;;;;;;0.70;0.70;;;16.30;52.30;;;;;;4916660;28;45028;-61
2022/11/09 09:51:40;;;;;;;1.00;0.80;;;16.30;52.30;;;;;;4904800;28;44746;-62
2022/11/09 09:54:13;;;;;;;1.13;1.00;;;16.30;52.30;;;;;;4931029;28;45544;-63
2022/11/09 09:56:40;;;;;;;0.47;0.47;;;16.30;52.30;;;;;;4911780;28;46187;-63
2022/11/09 09:59:32;;;;;;;0.98;0.80;;;16.30;52.30;;;;;;4933706;28;45297;-63
2022/11/09 10:01:58;;;;;;;1.00;0.80;;;16.30;52.30;;;;;;4944786;28;44990;-63
2022/11/09 10:04:33;;;;;;;0.90;0.68;;;16.30;52.30;;;;;;4935584;28;45182;-63
2022/11/09 10:07:41;;;;;;;0.70;0.70;;;16.30;52.30;;;;;;4921093;28;46032;-62
2022/11/09 10:10:36;;;;;;;0.85;0.57;;;16.30;52.30;;;;;;4929250;28;45285;-64
2022/11/09 10:13:16;;;;;;;0.90;0.55;;;16.30;52.80;;;;;;4931788;28;44987;-64
2022/11/09 10:16:00;;;;;;;1.20;0.70;;;16.30;52.30;;;;;;4934630;28;46463;-60
2022/11/09 10:18:29;;;;;;;0.65;0.52;;;16.30;52.20;;;;;;4928793;28;45911;-62
2022/11/09 10:21:07;;;;;;;0.60;0.57;;;16.40;52.30;;;;;;4925971;28;45336;-62
2022/11/09 10:23:39;;;;;;;0.82;0.52;;;16.40;52.20;;;;;;4934196;28;45485;-63
2022/11/09 10:26:16;;;;;;;0.50;0.50;;;16.40;52.20;;;;;;4926730;28;45634;-62
2022/11/09 10:28:42;;;;;;;0.95;0.63;;;16.40;52.20;;;;;;4935149;28;45981;-61
2022/11/09 10:31:16;;;;;;;0.60;0.60;;;16.40;52.30;;;;;;4938462;28;45468;-62
2022/11/09 10:33:48;;;;;;;0.88;0.70;;;16.40;52.30;;;;;;4927328;28;45241;-63
2022/11/09 10:36:28;;;;;;;0.40;0.40;;;16.40;52.30;;;;;;4947880;28;45813;-62
2022/11/09 10:38:55;;;;;;;0.85;0.60;;;16.40;52.20;;;;;;4934513;28;46285;-63
2022/11/09 10:41:40;;;;;;;0.70;0.65;;;16.40;52.20;;;;;;4937282;28;45234;-62
2022/11/09 10:44:16;;;;;;;0.73;0.60;;;16.40;52.10;;;;;;4935117;28;46117;-63
2022/11/09 10:47:01;;;;;;;0.50;0.50;;;16.40;52.20;;;;;;4937430;28;45488;-64
2022/11/09 10:49:27;;;;;;;0.50;0.50;;;16.40;52.10;;;;;;4936469;28;45585;-65
2022/11/09 10:51:52;;;;;;;0.73;0.50;;;16.40;52.10;;;;;;4931986;28;45472;-65
2022/11/09 10:54:22;;;;;;;0.73;0.73;;;16.40;52.00;;;;;;4935894;28;45265;-63
2022/11/09 10:56:50;;;;;;;0.45;0.45;;;16.50;52.00;;;;;;4931994;28;45501;-60
2022/11/09 10:59:35;;;;;;;0.90;0.75;;;16.50;52.00;;;;;;4922637;28;46448;-62
2022/11/09 11:02:01;;;;;;;0.52;0.47;;;16.50;52.00;;;;;;4921786;28;45415;-63
2022/11/09 11:04:27;;;;;;;1.20;0.65;;;16.50;52.00;;;;;;4942896;28;45328;-63
2022/11/09 11:06:54;;;;;;;0.80;0.70;;;16.50;52.00;;;;;;4937110;28;46347;-63
2022/11/09 11:09:20;;;;;;;0.77;0.60;;;16.50;52.00;;;;;;4940543;28;46172;-60
2022/11/09 11:11:46;;;;;;;0.98;0.70;;;16.50;52.00;;;;;;4938948;28;44731;-61
2022/11/09 11:14:19;;;;;;;0.65;0.57;;;16.50;51.90;;;;;;4898939;28;44981;-63
2022/11/09 11:16:45;;;;;;;1.65;0.60;;;16.60;51.90;;;;;;4916713;28;45241;-63
2022/11/09 11:19:34;;;;;;;1.13;0.80;;;16.50;51.90;;;;;;4939212;28;45171;-62
2022/11/09 11:22:17;;;;;;;0.50;0.50;;;16.50;51.90;;;;;;4930949;28;45346;-62
2022/11/09 11:24:57;;;;;;;0.73;0.60;;;16.50;51.90;;;;;;4934605;28;44978;-60
2022/11/09 11:27:40;;;;;;;0.80;0.60;;;16.50;51.80;;;;;;4939985;28;45159;-64
2022/11/09 11:30:09;;;;;;;0.40;0.40;;;16.50;51.90;;;;;;4906511;28;45534;-60
2022/11/09 11:32:35;;;;;;;1.30;0.70;;;16.50;51.90;;;;;;4929963;28;45350;-63
2022/11/09 11:35:38;;;;;;;0.68;0.60;;;16.50;51.80;;;;;;4936033;28;45029;-66
2022/11/09 11:38:26;;;;;;;0.70;0.63;;;16.50;51.80;;;;;;4885281;28;45464;-66
2022/11/09 11:41:17;;;;;;;0.40;0.40;;;16.60;51.80;;;;;;4928900;28;46673;-63
2022/11/09 11:43:43;;;;;;;0.45;0.45;;;16.50;51.80;;;;;;4932194;28;45557;-63
2022/11/09 11:46:32;;;;;;;0.47;0.47;;;16.50;51.90;;;;;;4936186;28;45457;-64
2022/11/09 11:49:23;;;;;;;0.60;0.60;;;16.50;51.90;;;;;;4915133;28;44651;-61
2022/11/09 11:51:59;;;;;;;1.95;0.60;;;16.50;51.90;;;;;;4939400;28;46888;-62
2022/11/09 11:55:18;;;;;;;0.70;0.70;;;16.60;51.90;;;;;;4912880;28;45179;-60
2022/11/09 11:58:16;;;;;;;0.40;0.40;;;16.50;51.80;;;;;;4919773;28;45495;-62
2022/11/09 12:00:57;;;;;;;0.60;0.60;;;16.50;51.90;;;;;;4927865;28;45512;-62
2022/11/09 12:03:27;;;;;;;0.65;0.52;;;16.50;51.90;;;;;;4908253;28;45623;-63
2022/11/09 12:06:17;;;;;;;0.52;0.52;;;16.50;51.90;;;;;;4937431;28;44888;-63
2022/11/09 12:09:05;;;;;;;1.08;0.68;;;16.50;51.90;;;;;;4916922;28;45512;-62
2022/11/09 12:11:42;;;;;;;0.80;0.60;;;16.50;52.50;;;;;;4917558;28;44891;-60
2022/11/09 12:14:36;;;;;;;0.65;0.65;;;16.50;51.90;;;;;;4907267;28;46452;-63
2022/11/09 12:17:20;;;;;;;;;;;16.60;51.90;;;;;;4918507;28;45179;-61
2022/11/09 12:20:01;;;;;;;0.65;0.60;;;16.50;51.90;;;;;;4933478;28;45169;-62
2022/11/09 12:22:44;;;;;;;0.50;0.43;;;16.50;51.90;;;;;;4936412;28;45212;-63
2022/11/09 12:25:10;;;;;;;;;;;16.60;51.90;;;;;;4901797;28;46258;-62
2022/11/09 12:28:10;;;;;;;0.50;0.50;;;16.60;51.90;;;;;;4931651;28;45039;-63
2022/11/09 12:30:49;;;;;;;0.50;0.50;;;16.60;51.90;;;;;;4931118;28;45177;-61
2022/11/09 12:33:27;;;;;;;0.88;0.50;;;16.50;51.90;;;;;;4906438;28;45705;-61
2022/11/09 12:35:58;;;;;;;0.60;0.55;;;16.50;51.90;;;;;;4901802;28;47117;-63
2022/11/09 12:38:31;;;;;;;0.77;0.70;;;16.60;51.90;;;;;;4919263;28;45402;-64
2022/11/09 12:41:07;;;;;;;0.50;0.50;;;16.60;51.90;;;;;;4903757;28;45520;-63
2022/11/09 12:44:07;;;;;;;0.80;0.60;;;16.60;52.00;;;;;;4925307;28;45526;-61
2022/11/09 12:46:39;;;;;;;0.50;0.50;;;16.60;51.90;;;;;;4923019;28;45595;-63
2022/11/09 12:49:04;;;;;;;0.75;0.68;;;16.50;51.90;;;;;;4901212;28;45219;-63
2022/11/09 12:51:31;;;;;;;1.00;0.63;;;16.60;51.90;;;;;;4923064;28;45286;-63
2022/11/09 12:53:57;;;;;;;0.60;0.60;;;16.60;51.90;;;;;;4926609;28;45583;-63
2022/11/09 12:56:31;;;;;;;0.60;0.50;;;16.60;51.90;;;;;;4937436;28;47027;-63
2022/11/09 12:59:27;;;;;;;0.50;0.50;;;16.60;52.00;;;;;;4934432;28;45181;-64
2022/11/09 13:01:54;;;;;;;0.55;0.50;;;16.60;51.90;;;;;;4929005;28;45173;-64
2022/11/09 13:04:21;;;;;;;0.50;0.50;;;16.60;52.00;;;;;;4920235;28;44995;-62
2022/11/09 13:07:02;;;;;;;0.55;0.52;;;16.60;51.90;;;;;;4939349;28;46151;-64
2022/11/09 13:09:28;;;;;;;0.75;0.73;;;16.60;51.80;;;;;;4937242;28;45475;-63
2022/11/09 13:11:55;;;;;;;0.65;0.65;;;16.60;51.90;;;;;;4937418;28;45362;-62
2022/11/09 13:14:20;;;;;;;1.58;0.82;;;16.60;51.90;;;;;;4940230;28;44625;-63
2022/11/09 13:16:47;;;;;;;0.60;0.60;;;16.70;51.90;;;;;;4946838;28;45623;-65
2022/11/09 13:19:32;;;;;;;1.60;0.47;;;16.60;51.90;;;;;;4946088;28;45251;-64
2022/11/09 13:21:58;;;;;;;0.52;0.50;;;16.60;51.80;;;;;;4935922;28;45768;-60
2022/11/09 13:24:30;;;;;;;0.57;0.52;;;16.60;51.90;;;;;;4939233;28;44933;-62
2022/11/09 13:27:02;;;;;;;0.50;0.50;;;16.60;51.80;;;;;;4932905;28;46336;-63
2022/11/09 13:29:40;;;;;;;0.85;0.68;;;16.60;51.80;;;;;;4938258;28;45218;-61
2022/11/09 13:32:11;;;;;;;0.75;0.60;;;16.60;51.90;;;;;;4923640;28;45583;-65
2022/11/09 13:34:50;;;;;;;0.55;0.50;;;16.60;51.90;;;;;;4938388;28;45372;-63
2022/11/09 13:37:35;;;;;;;0.63;0.60;;;16.60;52.00;;;;;;4936466;28;45645;-62
2022/11/09 13:40:30;;;;;;;0.63;0.52;;;16.60;51.80;;;;;;4941102;28;45425;-63
2022/11/09 13:43:11;;;;;;;0.40;0.40;;;16.60;51.90;;;;;;4931876;28;44983;-63
2022/11/09 13:45:45;;;;;;;0.50;0.50;;;16.70;51.90;;;;;;4936865;28;45920;-64
2022/11/09 13:48:35;;;;;;;0.55;0.47;;;16.60;51.90;;;;;;4929315;28;46863;-64
2022/11/09 13:51:12;;;;;;;0.85;0.57;;;16.60;51.90;;;;;;4926420;28;45310;-62
2022/11/09 13:53:38;;;;;;;0.65;0.65;;;16.60;51.90;;;;;;4900625;28;44671;-64
2022/11/09 13:56:28;;;;;;;0.95;0.60;;;16.60;51.90;;;;;;4931681;28;45425;-62
2022/11/09 13:59:17;;;;;;;0.73;0.60;;;16.70;52.00;;;;;;4933623;28;46098;-63
2022/11/09 14:01:52;;;;;;;0.85;0.60;;;16.60;51.90;;;;;;4925143;28;45378;-62
2022/11/09 14:04:24;;;;;;;0.50;0.43;;;16.70;51.90;;;;;;4933038;28;45042;-62
2022/11/09 14:07:05;;;;;;;1.02;0.93;;;16.70;52.00;;;;;;4937289;28;45390;-63
2022/11/09 14:10:07;;;;;;;0.57;0.55;;;16.60;51.90;;;;;;4907193;28;45287;-63
2022/11/09 14:13:11;;;;;;;0.47;0.47;;;16.70;52.00;;;;;;4935135;28;45372;-64
2022/11/09 14:16:08;;;;;;;0.68;0.50;;;16.60;52.00;;;;;;4936527;28;45438;-63
2022/11/09 14:18:49;;;;;;;0.57;0.55;;;16.60;52.00;;;;;;4922186;28;45766;-64
2022/11/09 14:21:41;;;;;;;0.82;0.73;;;16.60;52.00;;;;;;4944614;28;45696;-62
2022/11/09 14:24:14;;;;;;;0.90;0.50;;;16.60;52.00;;;;;;4904716;28;45501;-62
2022/11/09 14:26:39;;;;;;;0.40;0.40;;;16.60;52.00;;;;;;4923510;28;45266;-64
2022/11/09 14:29:22;;;;;;;0.52;0.52;;;16.60;52.10;;;;;;4936286;28;46238;-62
2022/11/09 14:31:47;;;;;;;0.57;0.50;;;16.70;52.00;;;;;;4921641;28;45258;-63
2022/11/09 14:34:15;;;;;;;0.55;0.55;;;16.60;52.10;;;;;;4934301;28;45208;-62
2022/11/09 14:36:41;;;;;;;0.60;0.60;;;16.60;52.00;;;;;;4935849;28;45591;-63
2022/11/09 14:39:25;;;;;;;0.50;0.50;;;16.60;52.00;;;;;;4933428;28;45225;-63
2022/11/09 14:41:50;;;;;;;;;;;16.60;52.10;;;;;;4923304;28;46169;-63
2022/11/09 14:44:24;;;;;;;0.57;0.57;;;16.60;52.10;;;;;;4929786;28;45225;-65
2022/11/09 14:46:54;;;;;;;1.27;0.60;;;16.60;52.10;;;;;;4920364;28;45176;-63
2022/11/09 14:49:20;;;;;;;0.50;0.50;;;16.60;52.10;;;;;;4918338;28;45514;-63
2022/11/09 14:51:47;;;;;;;0.77;0.65;;;16.60;52.10;;;;;;4932154;28;45556;-63
2022/11/09 14:54:14;;;;;;;0.50;0.50;;;16.60;52.10;;;;;;4930140;28;45412;-65
2022/11/09 14:56:40;;;;;;;0.50;0.50;;;16.60;52.10;;;;;;4912502;28;45309;-63
2022/11/09 14:59:13;;;;;;;0.63;0.50;;;16.60;52.10;;;;;;4921895;28;45235;-66
2022/11/09 15:01:38;;;;;;;0.43;0.40;;;16.60;52.10;;;;;;4905040;28;45576;-62
2022/11/09 15:04:07;;;;;;;0.70;0.57;;;16.60;52.10;;;;;;4918719;28;45085;-62
2022/11/09 15:06:33;;;;;;;0.90;0.70;;;16.60;52.10;;;;;;4931763;28;45044;-62
2022/11/09 15:09:08;;;;;;;0.45;0.40;;;16.60;52.10;;;;;;4924426;28;45269;-62
2022/11/09 15:11:36;;;;;;;0.82;0.57;;;16.60;52.10;;;;;;4933817;28;46176;-62
2022/11/09 15:14:13;;;;;;;0.80;0.47;;;16.60;52.10;;;;;;4909655;28;45475;-64
2022/11/09 15:16:39;;;;;;;0.47;0.45;;;16.60;52.10;;;;;;4897259;28;44968;-63
2022/11/09 15:19:04;;;;;;;0.60;0.60;;;16.60;52.70;;;;;;4937400;28;45552;-63
2022/11/09 15:21:30;;;;;;;0.50;0.50;;;16.60;52.10;;;;;;4934317;28;45912;-64
2022/11/09 15:24:23;;;;;;;0.82;0.70;;;16.60;52.10;;;;;;4938123;28;45435;-62
2022/11/09 15:26:49;;;;;;;;;;;16.60;52.10;;;;;;4926517;28;44927;-62
2022/11/09 15:29:33;;;;;;;0.77;0.47;;;16.60;52.20;;;;;;4920570;28;45195;-63
2022/11/09 15:32:20;;;;;;;0.90;0.47;;;16.60;52.20;;;;;;4918628;28;45946;-61
2022/11/09 15:34:56;;;;;;;0.80;0.55;;;16.60;52.20;;;;;;4925247;28;46080;-64
2022/11/09 15:37:22;;;;;;;0.57;0.57;;;16.60;52.20;;;;;;4917677;28;45329;-62
2022/11/09 15:39:48;;;;;;;0.47;0.47;;;16.60;52.20;;;;;;4930330;28;45610;-63
2022/11/09 15:42:13;;;;;;;0.40;0.40;;;16.60;52.10;;;;;;4931165;28;45751;-63
2022/11/09 15:44:39;;;;;;;0.60;0.60;;;16.60;52.10;;;;;;4918625;28;45358;-63
2022/11/09 15:47:18;;;;;;;0.55;0.55;;;16.60;52.10;;;;;;4940703;28;45193;-65
2022/11/09 15:49:44;;;;;;;0.73;0.50;;;16.60;52.10;;;;;;4915848;28;45316;-62
2022/11/09 15:52:10;;;;;;;0.60;0.50;;;16.60;52.20;;;;;;4932287;28;46222;-62
2022/11/09 15:54:36;;;;;;;0.68;0.50;;;16.60;52.20;;;;;;4936962;28;45628;-63
2022/11/09 15:57:01;;;;;;;0.65;0.47;;;16.60;52.20;;;;;;4928940;28;44942;-66
2022/11/09 15:59:27;;;;;;;0.47;0.47;;;16.60;52.20;;;;;;4938109;28;45125;-62
2022/11/09 16:01:53;;;;;;;0.50;0.50;;;16.60;52.20;;;;;;4925742;28;46820;-63
2022/11/09 16:04:19;;;;;;;0.75;0.70;;;16.60;52.20;;;;;;4921039;28;45480;-63
2022/11/09 16:06:44;;;;;;;0.57;0.40;;;16.60;52.20;;;;;;4928565;28;45268;-62
2022/11/09 16:09:10;;;;;;;0.75;0.55;;;16.60;52.10;;;;;;4926972;28;45200;-63
2022/11/09 16:11:35;;;;;;;0.77;0.50;;;16.60;52.10;;;;;;4916569;28;45328;-64
2022/11/09 16:14:01;;;;;;;0.40;0.40;;;16.60;52.10;;;;;;4932440;28;45145;-62
2022/11/09 16:16:27;;;;;;;1.10;0.70;;;16.60;52.20;;;;;;4932008;28;45403;-63
2022/11/09 16:18:54;;;;;;;0.50;0.50;;;16.70;52.20;;;;;;4932113;28;45210;-62
2022/11/09 16:21:19;;;;;;;0.77;0.60;;;16.60;52.10;;;;;;4927936;28;45529;-66
2022/11/09 16:23:45;;;;;;;0.52;0.52;;;16.60;52.10;;;;;;4916492;28;45376;-62
2022/11/09 16:26:15;;;;;;;0.50;0.47;;;16.60;52.20;;;;;;4926268;28;45034;-65
2022/11/09 16:28:42;;;;;;;0.95;0.60;;;16.60;52.20;;;;;;4928297;28;45425;-61
2022/11/09 16:31:08;;;;;;;0.43;0.43;;;16.60;52.20;;;;;;4939925;28;46018;-63
2022/11/09 16:33:34;;;;;;;0.60;0.60;;;16.60;52.20;;;;;;4912859;28;45501;-64
2022/11/09 16:36:01;;;;;;;0.43;0.40;;;16.60;52.20;;;;;;4925458;28;45304;-64
2022/11/09 16:38:31;;;;;;;0.60;0.60;;;16.60;52.20;;;;;;4878110;28;45371;-64
2022/11/09 16:40:58;;;;;;;0.50;0.50;;;16.60;52.20;;;;;;4912593;28;45182;-65
2022/11/09 16:43:24;;;;;;;0.57;0.52;;;16.60;52.20;;;;;;4905856;28;45958;-61
2022/11/09 16:45:49;;;;;;;0.60;0.60;;;16.60;52.20;;;;;;4928574;28;45206;-62
2022/11/09 16:48:15;;;;;;;0.85;0.60;;;16.60;52.20;;;;;;4933675;28;45524;-63
2022/11/09 16:50:41;;;;;;;0.90;0.60;;;16.60;52.20;;;;;;4917597;28;46179;-65
2022/11/09 16:53:08;;;;;;;1.05;0.80;;;16.60;52.20;;;;;;4923399;28;45554;-63
2022/11/09 16:55:34;;;;;;;0.40;0.40;;;16.60;52.20;;;;;;4930670;28;45307;-65
2022/11/09 16:57:59;;;;;;;0.80;0.63;;;16.60;52.20;;;;;;4925000;28;45709;-63
2022/11/09 17:00:26;;;;;;;0.47;0.40;;;16.60;52.20;;;;;;4931090;28;45450;-64
2022/11/09 17:02:52;;;;;;;0.93;0.70;;;16.60;52.10;;;;;;4931902;28;44986;-65
2022/11/09 17:05:18;;;;;;;0.70;0.60;;;16.60;52.10;;;;;;4934499;28;45314;-62
2022/11/09 17:07:46;;;;;;;0.40;0.40;;;16.60;52.10;;;;;;4936686;28;45087;-63